TPC2022 KFNB-KOMA

Flight info

Callsign TPC2022
Flight time 0h 54m
Altitude 8000
Route TRAIG V159 OVR
Aircraft C172/L-SG/S

Departure

Time 2026-05-05 04:39
Airport Brenner Field (KFNB)

Arrival

Time 2026-05-05 05:33
Airport Eppley Airfield (KOMA)
Time Latitude Longitude Altitude Speed Heading
2026-05-05 04:16 40.07804 -95.58965 975 ft 0 kts 148°
2026-05-05 04:33 40.07788 -95.58972 975 ft 2 kts 264°
2026-05-05 04:33 40.07784 -95.59003 976 ft 5 kts 244°
2026-05-05 04:33 40.07733 -95.58987 975 ft 10 kts 148°
2026-05-05 04:34 40.07663 -95.58933 974 ft 12 kts 146°
2026-05-05 04:34 40.07578 -95.58864 971 ft 14 kts 146°
2026-05-05 04:34 40.07489 -95.58794 969 ft 14 kts 147°
2026-05-05 04:34 40.07443 -95.58769 967 ft 0 kts 199°
2026-05-05 04:35 40.07441 -95.58770 967 ft 1 kts 199°
2026-05-05 04:35 40.07440 -95.58771 967 ft 0 kts 199°
2026-05-05 04:37 40.07439 -95.58771 967 ft 0 kts 200°
2026-05-05 04:37 40.07425 -95.58804 967 ft 3 kts 245°
2026-05-05 04:37 40.07420 -95.58836 968 ft 2 kts 298°
2026-05-05 04:38 40.07469 -95.58879 969 ft 28 kts 330°
2026-05-05 04:38 40.07754 -95.59101 1015 ft 60 kts 334°
2026-05-05 04:38 40.08096 -95.59399 1246 ft 59 kts 338°
2026-05-05 04:38 40.08434 -95.59628 1514 ft 55 kts 346°
2026-05-05 04:39 40.08751 -95.59618 1783 ft 51 kts 43°
2026-05-05 04:39 40.08830 -95.59084 1997 ft 58 kts 54°
2026-05-05 04:39 40.09022 -95.58649 2242 ft 52 kts 39°
2026-05-05 04:39 40.09262 -95.58352 2461 ft 52 kts 31°
2026-05-05 04:40 40.09534 -95.58061 2716 ft 49 kts 33°
2026-05-05 04:40 40.09774 -95.57735 2923 ft 49 kts 37°
2026-05-05 04:40 40.09988 -95.57398 3119 ft 52 kts 38°
2026-05-05 04:40 40.10208 -95.57045 3381 ft 49 kts 34°
2026-05-05 04:41 40.10445 -95.56712 3585 ft 54 kts 38°
2026-05-05 04:41 40.10707 -95.56355 3815 ft 57 kts 36°
2026-05-05 04:41 40.10982 -95.56001 4078 ft 56 kts 35°
2026-05-05 04:41 40.11266 -95.55644 4309 ft 58 kts 36°
2026-05-05 04:42 40.11565 -95.55267 4531 ft 61 kts 36°
2026-05-05 04:42 40.11862 -95.54888 4782 ft 60 kts 36°
2026-05-05 04:42 40.12171 -95.54514 5013 ft 61 kts 36°
2026-05-05 04:42 40.12486 -95.54125 5204 ft 67 kts 37°
2026-05-05 04:43 40.12835 -95.53689 5419 ft 70 kts 38°
2026-05-05 04:43 40.13182 -95.53254 5640 ft 71 kts 38°
2026-05-05 04:43 40.13542 -95.52806 5855 ft 72 kts 40°
2026-05-05 04:43 40.13893 -95.52352 6073 ft 73 kts 39°
2026-05-05 04:44 40.14272 -95.51867 6273 ft 76 kts 41°
2026-05-05 04:44 40.14631 -95.51367 6499 ft 75 kts 43°
2026-05-05 04:44 40.14984 -95.50838 6697 ft 78 kts 43°
2026-05-05 04:44 40.15380 -95.50277 6740 ft 97 kts 44°
2026-05-05 04:45 40.15888 -95.49565 6727 ft 112 kts 43°
2026-05-05 04:45 40.16449 -95.48794 6719 ft 118 kts 44°
2026-05-05 04:45 40.17010 -95.48026 6735 ft 117 kts 43°
2026-05-05 04:45 40.17582 -95.47282 6782 ft 114 kts 41°
2026-05-05 04:46 40.18142 -95.46549 6789 ft 115 kts 42°
2026-05-05 04:46 40.18723 -95.45795 6779 ft 116 kts 42°
2026-05-05 04:46 40.19278 -95.45042 6808 ft 116 kts 43°
2026-05-05 04:46 40.19835 -95.44279 6824 ft 116 kts 45°
2026-05-05 04:47 40.20378 -95.43488 6837 ft 116 kts 45°
2026-05-05 04:47 40.20923 -95.42709 6840 ft 117 kts 44°
2026-05-05 04:47 40.21476 -95.41904 6811 ft 119 kts 45°
2026-05-05 04:47 40.22031 -95.41097 6794 ft 119 kts 45°
2026-05-05 04:48 40.22577 -95.40308 6798 ft 117 kts 45°
2026-05-05 04:48 40.23114 -95.39500 6804 ft 116 kts 47°
2026-05-05 04:48 40.23634 -95.38683 6786 ft 117 kts 46°
2026-05-05 04:48 40.24157 -95.37862 6791 ft 116 kts 47°
2026-05-05 04:49 40.24668 -95.37056 6777 ft 117 kts 47°
2026-05-05 04:49 40.25189 -95.36224 6760 ft 117 kts 45°
2026-05-05 04:49 40.25730 -95.35449 6754 ft 116 kts 44°
2026-05-05 04:49 40.26266 -95.34634 6758 ft 116 kts 47°
2026-05-05 04:50 40.26795 -95.33845 6769 ft 116 kts 44°
2026-05-05 04:50 40.27349 -95.33074 6818 ft 114 kts 45°
2026-05-05 04:50 40.27892 -95.32295 6826 ft 115 kts 45°
2026-05-05 04:50 40.28423 -95.31518 6830 ft 117 kts 46°
2026-05-05 04:51 40.28968 -95.30716 6813 ft 119 kts 46°
2026-05-05 04:51 40.29516 -95.29898 6788 ft 119 kts 43°
2026-05-05 04:51 40.30102 -95.29114 6773 ft 119 kts 44°
2026-05-05 04:51 40.30666 -95.28350 6819 ft 114 kts 44°
2026-05-05 04:52 40.31216 -95.27595 6836 ft 114 kts 45°
2026-05-05 04:52 40.31763 -95.26827 6826 ft 116 kts 45°
2026-05-05 04:52 40.32294 -95.26047 6847 ft 114 kts 46°
2026-05-05 04:52 40.32827 -95.25256 6841 ft 115 kts 43°
2026-05-05 04:53 40.33383 -95.24499 6807 ft 117 kts 43°
2026-05-05 04:53 40.33964 -95.23724 6788 ft 118 kts 43°
2026-05-05 04:53 40.34531 -95.22968 6808 ft 116 kts 43°
2026-05-05 04:53 40.35116 -95.22234 6822 ft 115 kts 31°
2026-05-05 04:54 40.35896 -95.22028 6765 ft 119 kts 349°
2026-05-05 04:54 40.36630 -95.22493 6783 ft 115 kts 337°
2026-05-05 04:54 40.37353 -95.22926 6791 ft 116 kts 335°
2026-05-05 04:54 40.38079 -95.23380 6913 ft 109 kts 337°
2026-05-05 04:55 40.38717 -95.23749 7203 ft 95 kts 336°
2026-05-05 04:55 40.39299 -95.24058 7457 ft 88 kts 337°
2026-05-05 04:55 40.39847 -95.24323 7681 ft 82 kts 338°
2026-05-05 04:55 40.40416 -95.24589 7729 ft 96 kts 338°
2026-05-05 04:56 40.41081 -95.24906 7739 ft 107 kts 338°
2026-05-05 04:56 40.41809 -95.25252 7731 ft 114 kts 338°
2026-05-05 04:56 40.42582 -95.25613 7739 ft 119 kts 339°
2026-05-05 04:56 40.43355 -95.25974 7789 ft 117 kts 339°
2026-05-05 04:57 40.44114 -95.26329 7817 ft 113 kts 339°
2026-05-05 04:57 40.44864 -95.26676 7849 ft 114 kts 339°
2026-05-05 04:57 40.45627 -95.27027 7848 ft 118 kts 338°
2026-05-05 04:57 40.46414 -95.27380 7837 ft 120 kts 339°
2026-05-05 04:58 40.47201 -95.27719 7837 ft 119 kts 339°
2026-05-05 04:58 40.47991 -95.28056 7817 ft 118 kts 341°
2026-05-05 04:58 40.48790 -95.28372 7805 ft 119 kts 342°
2026-05-05 04:58 40.49584 -95.28675 7803 ft 119 kts 341°
2026-05-05 04:59 40.50314 -95.29171 7819 ft 117 kts 328°
2026-05-05 04:59 40.51011 -95.29713 7821 ft 118 kts 328°
2026-05-05 04:59 40.51749 -95.30251 7753 ft 123 kts 331°
2026-05-05 04:59 40.52489 -95.30793 7774 ft 119 kts 329°
2026-05-05 05:00 40.53211 -95.31337 7782 ft 118 kts 329°
2026-05-05 05:00 40.53920 -95.31866 7810 ft 117 kts 329°
2026-05-05 05:00 40.54654 -95.32333 7807 ft 118 kts 336°
2026-05-05 05:00 40.55415 -95.32738 7808 ft 119 kts 336°
2026-05-05 05:01 40.56182 -95.33158 7808 ft 119 kts 335°
2026-05-05 05:01 40.56947 -95.33591 7807 ft 119 kts 335°
2026-05-05 05:01 40.57698 -95.34035 7807 ft 118 kts 332°
2026-05-05 05:01 40.58276 -95.34776 7804 ft 118 kts 295°
2026-05-05 05:02 40.58288 -95.35834 7805 ft 120 kts 250°
2026-05-05 05:02 40.57717 -95.36614 7814 ft 122 kts 213°
2026-05-05 05:02 40.57224 -95.37429 7866 ft 114 kts 258°
2026-05-05 05:02 40.57378 -95.38413 7897 ft 113 kts 307°
2026-05-05 05:03 40.58043 -95.38920 7946 ft 113 kts 340°
2026-05-05 05:03 40.58813 -95.39243 7920 ft 119 kts 341°
2026-05-05 05:03 40.59641 -95.39548 7831 ft 124 kts 343°
2026-05-05 05:03 40.60466 -95.39834 7838 ft 122 kts 344°
2026-05-05 05:04 40.61277 -95.40121 7867 ft 119 kts 342°
2026-05-05 05:04 40.62080 -95.40393 7879 ft 119 kts 344°
2026-05-05 05:04 40.62888 -95.40668 7884 ft 119 kts 343°
2026-05-05 05:04 40.63697 -95.40939 7882 ft 120 kts 343°
2026-05-05 05:05 40.64502 -95.41215 7883 ft 120 kts 343°
2026-05-05 05:05 40.65310 -95.41481 7882 ft 120 kts 344°
2026-05-05 05:05 40.66118 -95.41758 7882 ft 120 kts 343°
2026-05-05 05:05 40.66932 -95.42030 7883 ft 120 kts 344°
2026-05-05 05:06 40.67745 -95.42301 7882 ft 120 kts 344°
2026-05-05 05:06 40.68548 -95.42570 7883 ft 120 kts 344°
2026-05-05 05:06 40.69320 -95.42984 7883 ft 119 kts 329°
2026-05-05 05:06 40.70037 -95.43531 7885 ft 118 kts 327°
2026-05-05 05:07 40.70752 -95.44090 7882 ft 119 kts 328°
2026-05-05 05:07 40.71458 -95.44649 7880 ft 118 kts 328°
2026-05-05 05:07 40.72171 -95.45209 7880 ft 119 kts 328°
2026-05-05 05:07 40.72879 -95.45768 7883 ft 118 kts 327°
2026-05-05 05:08 40.73582 -95.46318 7882 ft 118 kts 328°
2026-05-05 05:08 40.74294 -95.46873 7880 ft 118 kts 328°
2026-05-05 05:08 40.74997 -95.47427 7881 ft 118 kts 328°
2026-05-05 05:08 40.75713 -95.47992 7883 ft 118 kts 328°
2026-05-05 05:09 40.76418 -95.48544 7881 ft 118 kts 328°
2026-05-05 05:09 40.77132 -95.49106 7883 ft 119 kts 327°
2026-05-05 05:09 40.77837 -95.49661 7882 ft 118 kts 328°
2026-05-05 05:09 40.78546 -95.50215 7880 ft 119 kts 328°
2026-05-05 05:10 40.79254 -95.50780 7879 ft 119 kts 327°
2026-05-05 05:10 40.79965 -95.51340 7882 ft 119 kts 327°
2026-05-05 05:10 40.80670 -95.51892 7882 ft 118 kts 328°
2026-05-05 05:10 40.81385 -95.52451 7883 ft 118 kts 328°
2026-05-05 05:11 40.82094 -95.53005 7882 ft 119 kts 328°
2026-05-05 05:11 40.82827 -95.53501 7904 ft 118 kts 345°
2026-05-05 05:11 40.83602 -95.53763 7937 ft 115 kts 333°
2026-05-05 05:11 40.84356 -95.54126 7948 ft 116 kts 340°
2026-05-05 05:12 40.85147 -95.54439 7914 ft 119 kts 341°
2026-05-05 05:12 40.85937 -95.54729 7902 ft 115 kts 344°
2026-05-05 05:12 40.86723 -95.54970 7759 ft 116 kts 346°
2026-05-05 05:12 40.87511 -95.55207 7601 ft 117 kts 346°
2026-05-05 05:13 40.88319 -95.55418 7449 ft 117 kts 350°
2026-05-05 05:13 40.89100 -95.55683 7318 ft 114 kts 333°
2026-05-05 05:13 40.89781 -95.56233 7144 ft 117 kts 328°
2026-05-05 05:13 40.90470 -95.56810 6992 ft 115 kts 330°
2026-05-05 05:14 40.91147 -95.57343 6869 ft 114 kts 332°
2026-05-05 05:14 40.91850 -95.57867 6672 ft 117 kts 334°
2026-05-05 05:14 40.92577 -95.58333 6541 ft 113 kts 340°
2026-05-05 05:14 40.93300 -95.58699 6418 ft 112 kts 343°
2026-05-05 05:15 40.94047 -95.59024 6272 ft 113 kts 346°
2026-05-05 05:15 40.94799 -95.59330 6143 ft 111 kts 343°
2026-05-05 05:15 40.95464 -95.59832 6032 ft 108 kts 334°
2026-05-05 05:15 40.96123 -95.60354 5827 ft 111 kts 334°
2026-05-05 05:16 40.96774 -95.60905 5617 ft 112 kts 333°
2026-05-05 05:16 40.97421 -95.61454 5426 ft 109 kts 335°
2026-05-05 05:16 40.98086 -95.61947 5196 ft 110 kts 338°
2026-05-05 05:16 40.98756 -95.62429 4998 ft 106 kts 339°
2026-05-05 05:17 40.99380 -95.62882 4843 ft 102 kts 340°
2026-05-05 05:17 41.00012 -95.63324 4683 ft 101 kts 342°
2026-05-05 05:17 41.00636 -95.63702 4584 ft 95 kts 345°
2026-05-05 05:17 41.01242 -95.64046 4447 ft 95 kts 346°
2026-05-05 05:18 41.01849 -95.64379 4337 ft 94 kts 347°
2026-05-05 05:18 41.02452 -95.64709 4197 ft 94 kts 347°
2026-05-05 05:18 41.03068 -95.65024 4055 ft 95 kts 349°
2026-05-05 05:18 41.03698 -95.65315 3898 ft 95 kts 350°
2026-05-05 05:19 41.04306 -95.65633 3786 ft 95 kts 338°
2026-05-05 05:19 41.04837 -95.66155 3682 ft 94 kts 337°
2026-05-05 05:19 41.05377 -95.66592 3594 ft 85 kts 350°
2026-05-05 05:19 41.05923 -95.66859 3501 ft 85 kts 351°
2026-05-05 05:20 41.06496 -95.67122 3376 ft 90 kts 345°
2026-05-05 05:20 41.07019 -95.67592 3355 ft 83 kts 345°
2026-05-05 05:20 41.07529 -95.67950 3260 ft 86 kts 346°
2026-05-05 05:20 41.08054 -95.68312 3185 ft 85 kts 345°
2026-05-05 05:21 41.08592 -95.68668 3066 ft 87 kts 345°
2026-05-05 05:21 41.09131 -95.68997 3008 ft 83 kts 349°
2026-05-05 05:21 41.09657 -95.69338 2903 ft 88 kts 345°
2026-05-05 05:21 41.10222 -95.69679 2789 ft 88 kts 348°
2026-05-05 05:22 41.10796 -95.70005 2675 ft 91 kts 345°
2026-05-05 05:22 41.11392 -95.70344 2708 ft 92 kts 348°
2026-05-05 05:22 41.11965 -95.70682 2746 ft 91 kts 346°
2026-05-05 05:22 41.12544 -95.71030 2774 ft 89 kts 348°
2026-05-05 05:23 41.13111 -95.71381 2815 ft 92 kts 340°
2026-05-05 05:23 41.13634 -95.71845 2857 ft 92 kts 340°
2026-05-05 05:23 41.14186 -95.72224 2906 ft 88 kts 345°
2026-05-05 05:23 41.14746 -95.72584 2919 ft 89 kts 345°
2026-05-05 05:24 41.15318 -95.72952 2901 ft 91 kts 348°
2026-05-05 05:24 41.15907 -95.73264 2921 ft 91 kts 349°
2026-05-05 05:24 41.16500 -95.73574 2915 ft 94 kts 344°
2026-05-05 05:24 41.16931 -95.74371 2835 ft 123 kts 296°
2026-05-05 05:25 41.17027 -95.75511 2839 ft 123 kts 294°
2026-05-05 05:25 41.17124 -95.76627 2809 ft 123 kts 294°
2026-05-05 05:25 41.17489 -95.77452 2828 ft 94 kts 342°
2026-05-05 05:25 41.18024 -95.77998 2795 ft 100 kts 335°
2026-05-05 05:26 41.18496 -95.78494 2824 ft 71 kts 334°
2026-05-05 05:26 41.18861 -95.78854 2862 ft 55 kts 358°
2026-05-05 05:26 41.19228 -95.79046 2889 ft 68 kts 332°
2026-05-05 05:26 41.19567 -95.79443 2897 ft 70 kts 331°
2026-05-05 05:27 41.19912 -95.79929 2909 ft 75 kts 333°
2026-05-05 05:27 41.20285 -95.80325 2974 ft 63 kts 345°
2026-05-05 05:27 41.21031 -95.81029 2871 ft 64 kts 344°
2026-05-05 05:28 41.21382 -95.81354 2866 ft 62 kts 339°
2026-05-05 05:28 41.21733 -95.81708 2771 ft 66 kts 340°
2026-05-05 05:28 41.22118 -95.82018 2665 ft 67 kts 342°
2026-05-05 05:28 41.22539 -95.82345 2552 ft 71 kts 340°
2026-05-05 05:29 41.22946 -95.82731 2462 ft 73 kts 337°
2026-05-05 05:29 41.23376 -95.83107 2342 ft 74 kts 343°
2026-05-05 05:29 41.23789 -95.83495 2245 ft 77 kts 338°
2026-05-05 05:29 41.24195 -95.83910 2147 ft 72 kts 335°
2026-05-05 05:30 41.24628 -95.84283 2033 ft 73 kts 343°
2026-05-05 05:30 41.25044 -95.84674 1940 ft 75 kts 339°
2026-05-05 05:30 41.25468 -95.85041 1914 ft 69 kts 341°
2026-05-05 05:30 41.25856 -95.85462 1833 ft 72 kts 331°
2026-05-05 05:31 41.26255 -95.85826 1731 ft 72 kts 340°
2026-05-05 05:31 41.26658 -95.86193 1707 ft 66 kts 338°
2026-05-05 05:31 41.27027 -95.86578 1610 ft 65 kts 342°
2026-05-05 05:31 41.27393 -95.86932 1539 ft 68 kts 331°
2026-05-05 05:32 41.27755 -95.87269 1408 ft 67 kts 353°
2026-05-05 05:32 41.28175 -95.87586 1314 ft 71 kts 335°
2026-05-05 05:32 41.28546 -95.87952 1250 ft 66 kts 345°
2026-05-05 05:32 41.28885 -95.88273 1210 ft 56 kts 342°
2026-05-05 05:33 41.29205 -95.88547 1052 ft 61 kts 346°
2026-05-05 05:33 41.29549 -95.88869 988 ft 50 kts 347°
2026-05-05 05:33 41.29752 -95.89023 981 ft 20 kts 357°
2026-05-05 05:33 41.29813 -95.88992 981 ft 1 kts 54°
2026-05-05 05:34 41.29870 -95.88910 981 ft 17 kts 50°
2026-05-05 05:34 41.29943 -95.88761 981 ft 24 kts 51°
2026-05-05 05:34 41.30022 -95.88596 981 ft 16 kts 46°
2026-05-05 05:34 41.30102 -95.88541 981 ft 11 kts 24°
2026-05-05 05:35 41.30190 -95.88560 981 ft 11 kts
2026-05-05 05:35 41.30238 -95.88545 981 ft 0 kts 20°